Time;durP1;ratioP1;P1;durP2;ratioP2;P2;SDS_P1;SDS_P2;PMS_P1;PMS_P2;Temp;Humidity;BMP_temperature;BMP_pressure;BME280_temperature;BME280_humidity;BME280_pressure;Samples;Min_cycle;Max_cycle;Signal;HPM_P1;HPM_P2
2023/10/02 00:00:42;;;;;;;12.68;6.95;;;;;;;;;;5105814;28;41430;-71
2023/10/02 00:03:10;;;;;;;9.48;6.15;;;;;;;;;;5098414;28;42557;-70
2023/10/02 00:05:50;;;;;;;11.25;6.80;;;;;;;;;;5104745;28;43027;-71
2023/10/02 00:08:31;;;;;;;9.95;6.68;;;;;;;;;;5106079;28;41329;-71
2023/10/02 00:11:35;;;;;;;9.82;6.07;;;;;;;;;;5106814;28;43426;-71
2023/10/02 00:16:40;;;;;;;10.30;6.65;;;;;;;;;;5109089;28;42180;-71
2023/10/02 00:19:18;;;;;;;9.10;5.63;;;;;;;;;;5108324;28;42044;-71
2023/10/02 00:21:46;;;;;;;9.38;6.30;;;;;;;;;;5105402;28;41993;-71
2023/10/02 00:24:14;;;;;;;10.40;6.75;;;;;;;;;;5109429;28;42030;-70
2023/10/02 00:26:44;;;;;;;9.25;6.03;;;;;;;;;;5109693;28;41552;-71
2023/10/02 00:29:12;;;;;;;11.23;6.40;;;;;;;;;;5089855;28;40076;-71
2023/10/02 00:31:42;;;;;;;9.20;6.25;;;;;;;;;;5109948;28;42671;-71
2023/10/02 00:34:10;;;;;;;10.18;6.63;;;;;;;;;;5091184;28;40170;-70
2023/10/02 00:36:39;;;;;;;10.60;6.25;;;;;;;;;;5090217;28;40280;-70
2023/10/02 00:47:35;;;;;;;9.95;5.90;;;;;;;;;;5090400;28;39789;-70
2023/10/02 00:50:08;;;;;;;11.20;6.18;;;;;;;;;;5104983;28;41523;-70
2023/10/02 00:52:37;;;;;;;9.93;6.00;;;;;;;;;;5090070;28;40886;-70
2023/10/02 00:55:06;;;;;;;12.15;6.32;;;;;;;;;;5107563;28;40743;-70
2023/10/02 00:57:36;;;;;;;9.02;5.70;;;;;;;;;;5108561;28;41356;-70
2023/10/02 01:00:06;;;;;;;12.90;5.57;;;;;;;;;;5108869;28;43118;-71
2023/10/02 01:02:35;;;;;;;8.68;5.85;;;;;;;;;;5090437;28;40653;-70
2023/10/02 01:05:04;;;;;;;10.15;6.40;;;;;;;;;;5108743;28;41324;-70
2023/10/02 01:07:34;;;;;;;8.63;5.68;;;;;;;;;;5090741;28;41094;-71
2023/10/02 01:10:09;;;;;;;9.18;5.70;;;;;;;;;;5108681;28;41634;-70
2023/10/02 01:12:44;;;;;;;8.85;5.80;;;;;;;;;;5105427;28;41633;-70
2023/10/02 01:15:12;;;;;;;10.65;6.30;;;;;;;;;;5090265;28;41790;-70
2023/10/02 01:17:40;;;;;;;8.70;5.70;;;;;;;;;;5112641;27;41900;-70
2023/10/02 01:20:14;;;;;;;10.32;5.80;;;;;;;;;;5090062;28;40643;-71
2023/10/02 01:22:43;;;;;;;7.70;5.05;;;;;;;;;;5107459;28;41394;-71
2023/10/02 01:25:16;;;;;;;8.35;5.57;;;;;;;;;;5108908;27;42686;-70
2023/10/02 01:27:47;;;;;;;8.85;5.53;;;;;;;;;;5090349;28;40638;-70
2023/10/02 01:30:15;;;;;;;9.98;5.60;;;;;;;;;;5105839;28;40873;-70
2023/10/02 01:33:06;;;;;;;10.13;6.22;;;;;;;;;;5108344;28;41532;-70
2023/10/02 01:35:36;;;;;;;8.95;5.57;;;;;;;;;;5107809;28;42300;-70
2023/10/02 01:38:12;;;;;;;8.90;5.50;;;;;;;;;;5089948;28;40064;-70
2023/10/02 01:40:43;;;;;;;8.55;5.82;;;;;;;;;;5089572;28;41361;-70
2023/10/02 01:43:14;;;;;;;10.07;5.82;;;;;;;;;;5106121;28;41382;-70
2023/10/02 01:45:43;;;;;;;8.95;5.20;;;;;;;;;;5104469;28;41279;-70
2023/10/02 01:48:13;;;;;;;8.38;5.25;;;;;;;;;;5109012;28;41700;-70
2023/10/02 01:50:43;;;;;;;9.05;5.75;;;;;;;;;;5107049;28;42037;-70
2023/10/02 01:53:29;;;;;;;9.75;6.00;;;;;;;;;;5089475;28;42841;-71
2023/10/02 01:56:10;;;;;;;8.40;5.82;;;;;;;;;;5089117;28;40550;-70
2023/10/02 01:58:40;;;;;;;9.13;5.78;;;;;;;;;;5089474;28;39414;-70
2023/10/02 02:01:09;;;;;;;7.82;5.60;;;;;;;;;;5088279;28;41811;-71
2023/10/02 02:03:38;;;;;;;11.35;6.22;;;;;;;;;;5108911;28;43157;-70
2023/10/02 02:06:13;;;;;;;7.95;5.40;;;;;;;;;;5089483;28;42102;-71
2023/10/02 02:08:43;;;;;;;8.35;5.30;;;;;;;;;;5089251;28;40699;-70
2023/10/02 02:11:16;;;;;;;11.57;5.90;;;;;;;;;;5089546;28;40343;-71
2023/10/02 02:13:48;;;;;;;8.57;5.60;;;;;;;;;;5089017;28;40056;-70
2023/10/02 02:16:16;;;;;;;9.35;5.60;;;;;;;;;;5083670;28;40389;-71
2023/10/02 02:18:45;;;;;;;8.85;5.30;;;;;;;;;;5108331;28;42542;-70
2023/10/02 02:21:16;;;;;;;8.32;5.18;;;;;;;;;;5107866;28;42118;-71
2023/10/02 02:23:45;;;;;;;7.13;4.93;;;;;;;;;;5107655;28;42216;-70
2023/10/02 02:26:21;;;;;;;7.75;5.22;;;;;;;;;;5108323;28;41445;-70
2023/10/02 02:28:51;;;;;;;8.25;5.07;;;;;;;;;;5103980;28;41956;-71
2023/10/02 02:31:32;;;;;;;8.23;5.65;;;;;;;;;;5089828;28;40946;-70
2023/10/02 02:34:02;;;;;;;9.40;5.93;;;;;;;;;;5075550;28;40701;-70
2023/10/02 02:36:34;;;;;;;7.78;5.18;;;;;;;;;;5105800;28;42019;-70
2023/10/02 02:39:17;;;;;;;9.95;6.00;;;;;;;;;;5104754;28;41037;-70
2023/10/02 02:41:48;;;;;;;10.32;6.35;;;;;;;;;;5104540;28;41240;-71
2023/10/02 02:44:36;;;;;;;8.32;5.68;;;;;;;;;;5091687;28;40580;-71
2023/10/02 02:47:07;;;;;;;9.65;5.60;;;;;;;;;;5105409;28;40717;-71
2023/10/02 02:49:48;;;;;;;8.38;5.20;;;;;;;;;;5105136;28;43258;-70
2023/10/02 02:52:20;;;;;;;7.95;5.68;;;;;;;;;;5105015;28;41300;-70
2023/10/02 02:54:48;;;;;;;8.63;5.13;;;;;;;;;;5107065;28;41805;-70
2023/10/02 02:57:25;;;;;;;8.75;5.63;;;;;;;;;;5087719;28;41066;-70
2023/10/02 03:00:24;;;;;;;8.38;5.35;;;;;;;;;;5104812;28;41872;-70
2023/10/02 03:02:41;;;;;;;9.88;5.88;;;;;;;;;;5107408;28;41390;-71
2023/10/02 03:05:11;;;;;;;8.63;5.72;;;;;;;;;;5106842;28;41710;-71
2023/10/02 03:07:40;;;;;;;8.82;5.53;;;;;;;;;;5107638;27;42289;-71
2023/10/02 03:10:11;;;;;;;9.10;5.07;;;;;;;;;;5110645;28;42345;-70
2023/10/02 03:12:44;;;;;;;8.05;5.13;;;;;;;;;;5110041;28;42268;-70
2023/10/02 03:15:17;;;;;;;7.70;5.47;;;;;;;;;;5109391;28;40883;-70
2023/10/02 03:17:46;;;;;;;9.05;5.72;;;;;;;;;;5107050;28;42600;-70
2023/10/02 03:20:26;;;;;;;7.50;5.20;;;;;;;;;;5110710;28;41459;-70
2023/10/02 03:22:55;;;;;;;8.10;5.07;;;;;;;;;;5107344;28;41959;-70
2023/10/02 03:25:28;;;;;;;8.45;5.40;;;;;;;;;;5110165;28;41826;-70
2023/10/02 03:27:57;;;;;;;9.93;5.82;;;;;;;;;;5108947;28;41216;-69
2023/10/02 03:30:38;;;;;;;8.52;5.80;;;;;;;;;;5110131;28;42852;-70
2023/10/02 03:33:17;;;;;;;7.55;4.90;;;;;;;;;;5106903;28;42365;-70
2023/10/02 03:35:56;;;;;;;9.25;5.32;;;;;;;;;;5098132;28;41808;-70
2023/10/02 03:38:25;;;;;;;8.90;5.30;;;;;;;;;;5106912;28;42063;-69
2023/10/02 03:40:57;;;;;;;9.05;5.47;;;;;;;;;;5110417;28;41644;-69
2023/10/02 03:43:35;;;;;;;8.50;5.05;;;;;;;;;;5110985;28;42776;-70
2023/10/02 03:46:04;;;;;;;6.72;5.10;;;;;;;;;;5106830;28;41793;-69
2023/10/02 03:48:32;;;;;;;9.63;5.80;;;;;;;;;;5110047;28;41352;-70
2023/10/02 03:51:01;;;;;;;9.25;5.70;;;;;;;;;;5110635;28;42719;-70
2023/10/02 03:53:30;;;;;;;7.93;5.28;;;;;;;;;;5109044;28;41773;-70
2023/10/02 03:55:59;;;;;;;8.93;5.63;;;;;;;;;;5110351;28;41842;-69
2023/10/02 03:58:38;;;;;;;9.38;6.18;;;;;;;;;;5110044;28;44092;-69
2023/10/02 04:01:08;;;;;;;8.20;5.32;;;;;;;;;;5106991;28;42480;-70
2023/10/02 04:03:53;;;;;;;9.52;5.82;;;;;;;;;;5109783;28;42206;-70
2023/10/02 04:06:33;;;;;;;9.77;5.97;;;;;;;;;;5106795;28;41989;-69
2023/10/02 04:09:09;;;;;;;7.95;5.25;;;;;;;;;;5106299;28;41410;-70
2023/10/02 04:11:39;;;;;;;8.80;5.55;;;;;;;;;;5106866;28;41463;-70
2023/10/02 04:14:17;;;;;;;8.68;5.35;;;;;;;;;;5109258;28;43189;-69
2023/10/02 04:16:48;;;;;;;8.38;5.32;;;;;;;;;;5107114;28;40839;-70
2023/10/02 04:19:15;;;;;;;8.05;4.95;;;;;;;;;;5110214;27;41380;-70
2023/10/02 04:21:45;;;;;;;7.60;5.10;;;;;;;;;;5109586;28;41457;-70
2023/10/02 04:24:14;;;;;;;8.30;5.28;;;;;;;;;;5109797;28;41714;-70
2023/10/02 04:26:53;;;;;;;7.63;5.25;;;;;;;;;;5109877;28;43141;-70
2023/10/02 04:29:29;;;;;;;7.47;4.80;;;;;;;;;;5106905;28;41229;-71
2023/10/02 04:34:50;;;;;;;8.98;5.45;;;;;;;;;;5069896;28;41041;-70
2023/10/02 04:37:20;;;;;;;10.70;6.47;;;;;;;;;;5109358;28;42801;-70
2023/10/02 04:40:13;;;;;;;8.25;5.63;;;;;;;;;;5101633;28;42223;-70
2023/10/02 04:43:09;;;;;;;8.57;5.57;;;;;;;;;;5104703;28;42218;-70
2023/10/02 04:45:38;;;;;;;9.52;6.20;;;;;;;;;;5106791;28;41109;-70
2023/10/02 04:48:09;;;;;;;9.43;6.13;;;;;;;;;;5109411;28;42184;-70
2023/10/02 04:50:45;;;;;;;10.40;6.13;;;;;;;;;;5105639;28;41340;-70
2023/10/02 04:53:22;;;;;;;10.45;6.45;;;;;;;;;;5108975;28;41889;-70
2023/10/02 04:56:06;;;;;;;9.75;6.07;;;;;;;;;;5108051;28;42213;-70
2023/10/02 04:58:39;;;;;;;9.77;6.38;;;;;;;;;;5090869;28;39750;-70
2023/10/02 05:01:28;;;;;;;8.48;5.68;;;;;;;;;;5106171;28;41632;-70
2023/10/02 05:04:02;;;;;;;8.88;5.25;;;;;;;;;;5106025;28;42214;-71
2023/10/02 05:06:43;;;;;;;9.23;6.05;;;;;;;;;;5090331;28;39951;-71
2023/10/02 05:09:20;;;;;;;8.65;5.22;;;;;;;;;;5105704;28;42048;-71
2023/10/02 05:11:55;;;;;;;8.60;5.65;;;;;;;;;;5102450;28;40827;-70
2023/10/02 05:14:26;;;;;;;8.90;5.65;;;;;;;;;;5106175;28;41351;-70
2023/10/02 05:17:16;;;;;;;10.65;5.68;;;;;;;;;;5108187;28;42757;-70
2023/10/02 05:19:56;;;;;;;9.02;5.68;;;;;;;;;;5105561;28;41509;-71
2023/10/02 05:22:27;;;;;;;8.38;5.47;;;;;;;;;;5090697;28;40093;-70
2023/10/02 05:24:58;;;;;;;8.60;5.43;;;;;;;;;;5105844;28;41696;-70
2023/10/02 05:27:29;;;;;;;8.88;5.97;;;;;;;;;;5105706;28;41064;-70
2023/10/02 05:29:58;;;;;;;9.85;6.32;;;;;;;;;;5107887;28;42130;-70
2023/10/02 05:32:31;;;;;;;8.88;5.70;;;;;;;;;;5106325;28;41072;-70
2023/10/02 05:35:04;;;;;;;7.65;4.75;;;;;;;;;;5106026;28;42663;-70
2023/10/02 05:37:32;;;;;;;9.27;5.95;;;;;;;;;;5105619;28;41815;-71
2023/10/02 05:40:37;;;;;;;8.77;5.97;;;;;;;;;;5107608;28;42342;-70
2023/10/02 05:43:17;;;;;;;8.35;5.97;;;;;;;;;;5108876;28;41140;-71
2023/10/02 05:45:50;;;;;;;9.05;5.78;;;;;;;;;;5104287;28;43106;-70
2023/10/02 05:48:27;;;;;;;7.70;4.80;;;;;;;;;;5097213;28;41958;-70
2023/10/02 05:50:57;;;;;;;12.80;7.10;;;;;;;;;;5106183;28;41596;-70
2023/10/02 05:53:26;;;;;;;17.02;8.13;;;;;;;;;;5100287;28;40868;-70
2023/10/02 05:56:12;;;;;;;21.83;12.73;;;;;;;;;;5107344;28;41854;-71
2023/10/02 05:58:41;;;;;;;23.40;12.98;;;;;;;;;;5100044;28;42380;-71
2023/10/02 06:01:18;;;;;;;23.80;13.68;;;;;;;;;;5106844;28;41258;-71
2023/10/02 06:03:56;;;;;;;25.48;13.73;;;;;;;;;;5105436;28;41562;-71
2023/10/02 06:06:25;;;;;;;23.98;14.00;;;;;;;;;;5102239;28;41458;-72
2023/10/02 06:08:55;;;;;;;22.95;13.25;;;;;;;;;;5108172;28;41390;-72
2023/10/02 06:11:26;;;;;;;27.17;14.40;;;;;;;;;;5107462;28;42191;-72
2023/10/02 06:13:55;;;;;;;23.73;13.73;;;;;;;;;;5104981;28;41873;-72
2023/10/02 06:16:29;;;;;;;29.83;14.20;;;;;;;;;;5106884;28;41875;-71
2023/10/02 06:19:02;;;;;;;24.77;14.05;;;;;;;;;;5107607;28;43126;-71
2023/10/02 06:21:30;;;;;;;22.75;12.80;;;;;;;;;;5103452;28;41316;-70
2023/10/02 06:23:58;;;;;;;25.05;13.73;;;;;;;;;;5107755;28;41610;-70
2023/10/02 06:26:29;;;;;;;19.75;12.88;;;;;;;;;;5107994;28;42094;-70
2023/10/02 06:31:42;;;;;;;21.83;13.32;;;;;;;;;;5107133;28;43070;-73
2023/10/02 06:34:12;;;;;;;23.73;13.43;;;;;;;;;;5104194;28;41959;-72
2023/10/02 06:36:47;;;;;;;25.20;13.52;;;;;;;;;;5108256;28;41406;-72
2023/10/02 06:39:17;;;;;;;24.55;14.00;;;;;;;;;;5103734;28;42111;-72
2023/10/02 06:41:46;;;;;;;26.55;14.25;;;;;;;;;;5108308;27;41422;-70
2023/10/02 06:44:18;;;;;;;24.90;13.43;;;;;;;;;;5112072;28;41394;-71
2023/10/02 06:46:53;;;;;;;27.90;13.80;;;;;;;;;;5108848;28;41603;-69
2023/10/02 06:49:26;;;;;;;27.58;13.77;;;;;;;;;;5109560;28;41440;-70
2023/10/02 06:51:54;;;;;;;25.88;13.90;;;;;;;;;;5111605;28;42669;-69
2023/10/02 06:54:22;;;;;;;25.13;13.63;;;;;;;;;;5111353;28;42100;-70
2023/10/02 06:56:50;;;;;;;25.70;14.32;;;;;;;;;;5110283;28;41651;-70
2023/10/02 06:59:21;;;;;;;26.48;13.55;;;;;;;;;;5110683;28;42006;-71
2023/10/02 07:02:04;;;;;;;23.92;13.85;;;;;;;;;;5111000;28;40933;-70
2023/10/02 07:04:36;;;;;;;24.65;14.05;;;;;;;;;;5108096;28;42414;-71
2023/10/02 07:07:04;;;;;;;24.63;13.98;;;;;;;;;;5110309;28;43140;-69
2023/10/02 07:09:33;;;;;;;26.73;14.50;;;;;;;;;;5109753;28;41077;-70
2023/10/02 07:12:08;;;;;;;24.38;14.15;;;;;;;;;;5104473;28;42423;-69
2023/10/02 07:14:36;;;;;;;27.52;14.27;;;;;;;;;;5108467;28;42121;-69
2023/10/02 07:17:16;;;;;;;26.60;14.30;;;;;;;;;;5109816;28;41327;-71
2023/10/02 07:19:48;;;;;;;23.52;12.73;;;;;;;;;;5110066;28;42404;-71
2023/10/02 07:22:23;;;;;;;24.95;13.32;;;;;;;;;;5109094;28;41386;-69
2023/10/02 07:24:54;;;;;;;30.50;12.77;;;;;;;;;;5109036;28;41100;-68
2023/10/02 07:27:25;;;;;;;26.20;12.18;;;;;;;;;;5109101;28;41936;-67
2023/10/02 07:29:54;;;;;;;24.85;12.38;;;;;;;;;;5106697;28;40812;-68
2023/10/02 07:32:22;;;;;;;23.55;12.43;;;;;;;;;;5109624;28;42708;-68
2023/10/02 07:34:52;;;;;;;25.58;12.25;;;;;;;;;;5109222;28;42626;-70
2023/10/02 07:37:24;;;;;;;28.23;12.75;;;;;;;;;;5109277;28;42628;-72
2023/10/02 07:40:00;;;;;;;22.33;11.88;;;;;;;;;;5107266;28;41535;-72
2023/10/02 07:42:29;;;;;;;25.23;11.35;;;;;;;;;;5110085;28;42185;-71
2023/10/02 07:45:11;;;;;;;22.73;12.15;;;;;;;;;;5109703;28;41346;-70
2023/10/02 07:47:55;;;;;;;22.23;12.00;;;;;;;;;;5106991;28;42077;-71
2023/10/02 07:50:33;;;;;;;23.13;11.73;;;;;;;;;;5107155;28;41543;-72
2023/10/02 07:53:04;;;;;;;21.38;11.32;;;;;;;;;;5104484;28;41623;-70
2023/10/02 07:55:33;;;;;;;23.00;12.63;;;;;;;;;;5107737;28;42510;-71
2023/10/02 07:58:01;;;;;;;24.25;12.00;;;;;;;;;;5110391;28;41057;-72
2023/10/02 08:06:00;;;;;;;27.92;14.30;;;;;;;;;;5107589;28;40921;-69
2023/10/02 08:08:31;;;;;;;30.02;15.48;;;;;;;;;;5108927;28;43078;-70
2023/10/02 08:11:02;;;;;;;27.15;15.82;;;;;;;;;;5107141;28;42259;-70
2023/10/02 08:13:35;;;;;;;35.92;16.00;;;;;;;;;;5108884;28;41432;-70
2023/10/02 08:16:14;;;;;;;29.65;15.18;;;;;;;;;;5109784;28;42139;-68
2023/10/02 08:21:36;;;;;;;27.27;13.73;;;;;;;;;;5128869;27;21098;-70
2023/10/02 08:24:04;;;;;;;24.35;12.60;;;;;;;;;;5112476;27;42265;-69
2023/10/02 08:26:38;;;;;;;23.58;13.27;;;;;;;;;;5109012;27;40118;-70
2023/10/02 08:29:08;;;;;;;25.52;13.68;;;;;;;;;;5109633;27;42379;-70
2023/10/02 08:31:42;;;;;;;33.00;13.25;;;;;;;;;;5120484;27;42224;-70
2023/10/02 08:34:12;;;;;;;24.80;12.45;;;;;;;;;;5123258;27;40122;-70
2023/10/02 08:36:44;;;;;;;25.73;12.98;;;;;;;;;;5120954;27;41265;-70
2023/10/02 08:39:12;;;;;;;23.38;13.27;;;;;;;;;;5117811;27;42210;-69
2023/10/02 08:41:46;;;;;;;20.15;11.75;;;;;;;;;;5117991;27;41499;-69
2023/10/02 08:44:14;;;;;;;18.80;11.35;;;;;;;;;;5120301;27;41836;-69
2023/10/02 08:46:43;;;;;;;22.38;12.25;;;;;;;;;;5124381;27;41434;-69
2023/10/02 08:49:13;;;;;;;20.80;11.82;;;;;;;;;;5124004;27;41756;-70
2023/10/02 08:51:48;;;;;;;22.90;12.48;;;;;;;;;;5124146;27;41888;-69
2023/10/02 08:54:18;;;;;;;22.98;11.90;;;;;;;;;;5121637;27;41019;-69
2023/10/02 08:56:48;;;;;;;22.63;12.90;;;;;;;;;;5123553;27;42024;-70
2023/10/02 08:59:18;;;;;;;19.63;11.57;;;;;;;;;;5124879;27;41275;-69
2023/10/02 09:01:47;;;;;;;18.95;11.60;;;;;;;;;;5123165;27;41436;-70
2023/10/02 09:07:16;;;;;;;19.42;10.93;;;;;;;;;;5106859;27;40538;-69
2023/10/02 09:09:45;;;;;;;19.77;11.05;;;;;;;;;;5106454;27;42097;-70
2023/10/02 09:12:14;;;;;;;20.98;10.88;;;;;;;;;;5124035;27;43377;-70
2023/10/02 09:14:43;;;;;;;18.40;12.13;;;;;;;;;;5114579;27;40484;-70
2023/10/02 09:17:23;;;;;;;21.23;12.27;;;;;;;;;;5116415;27;42522;-69
2023/10/02 09:19:55;;;;;;;18.42;10.95;;;;;;;;;;5110011;27;41964;-70
2023/10/02 09:22:23;;;;;;;17.75;10.15;;;;;;;;;;5121322;27;41160;-69
2023/10/02 09:25:15;;;;;;;17.85;11.35;;;;;;;;;;5122613;27;41809;-70
2023/10/02 09:27:56;;;;;;;21.20;11.02;;;;;;;;;;5121219;27;42515;-69
2023/10/02 09:30:37;;;;;;;17.15;9.98;;;;;;;;;;5121066;27;41622;-70
2023/10/02 09:33:14;;;;;;;15.85;10.18;;;;;;;;;;5094698;28;43912;-69
2023/10/02 09:36:00;;;;;;;21.80;11.38;;;;;;;;;;5103883;28;40735;-69
2023/10/02 09:38:48;;;;;;;18.77;10.93;;;;;;;;;;5105661;28;41996;-70
2023/10/02 09:41:20;;;;;;;20.83;11.27;;;;;;;;;;5109918;28;43120;-69
2023/10/02 09:43:49;;;;;;;17.85;9.77;;;;;;;;;;5106395;28;40849;-70
2023/10/02 09:46:21;;;;;;;19.63;10.40;;;;;;;;;;5109999;28;40988;-70
2023/10/02 09:49:01;;;;;;;17.02;10.32;;;;;;;;;;5107574;28;43109;-68
2023/10/02 09:51:37;;;;;;;28.95;11.43;;;;;;;;;;5109426;27;40327;-69
2023/10/02 09:54:09;;;;;;;34.08;15.30;;;;;;;;;;5108045;27;41634;-69
2023/10/02 09:56:51;;;;;;;28.17;15.20;;;;;;;;;;5106457;28;41393;-69
2023/10/02 09:59:21;;;;;;;28.20;15.90;;;;;;;;;;5106067;28;42444;-69
2023/10/02 10:02:07;;;;;;;30.02;15.25;;;;;;;;;;5109128;28;42099;-70
2023/10/02 10:05:22;;;;;;;30.27;17.17;;;;;;;;;;5100914;27;40708;-70
2023/10/02 10:08:18;;;;;;;29.27;15.80;;;;;;;;;;5105977;28;42851;-69
2023/10/02 10:10:47;;;;;;;33.25;18.15;;;;;;;;;;5100884;28;41588;-70
2023/10/02 10:13:32;;;;;;;34.90;17.40;;;;;;;;;;5108855;27;40812;-70
2023/10/02 10:16:18;;;;;;;34.33;17.58;;;;;;;;;;5106711;28;41717;-69
2023/10/02 10:21:56;;;;;;;52.10;17.67;;;;;;;;;;5109906;28;41350;-68
2023/10/02 10:24:30;;;;;;;36.58;17.30;;;;;;;;;;5106847;28;41905;-68
2023/10/02 10:26:58;;;;;;;40.72;17.80;;;;;;;;;;5092055;28;41427;-68
2023/10/02 10:29:41;;;;;;;46.60;18.13;;;;;;;;;;5095100;28;41450;-70
2023/10/02 10:32:16;;;;;;;47.97;17.90;;;;;;;;;;5092343;28;41893;-68
2023/10/02 10:35:11;;;;;;;48.45;17.23;;;;;;;;;;5099013;28;41011;-69
2023/10/02 10:37:41;;;;;;;41.33;17.95;;;;;;;;;;5099679;28;42296;-68
2023/10/02 10:42:56;;;;;;;43.63;17.65;;;;;;;;;;5092381;28;41153;-68
2023/10/02 10:45:26;;;;;;;46.20;16.27;;;;;;;;;;5093616;28;42641;-68
2023/10/02 10:47:54;;;;;;;33.50;15.27;;;;;;;;;;5103312;28;41258;-69
2023/10/02 10:50:29;;;;;;;41.60;17.05;;;;;;;;;;5100539;28;40932;-69
2023/10/02 10:53:02;;;;;;;37.65;15.70;;;;;;;;;;5100916;28;41977;-68
2023/10/02 10:55:33;;;;;;;42.05;17.08;;;;;;;;;;5097687;28;41033;-69
2023/10/02 10:58:01;;;;;;;39.90;17.33;;;;;;;;;;5097712;28;41658;-71
2023/10/02 11:00:41;;;;;;;36.92;15.80;;;;;;;;;;5106374;28;43171;-70
2023/10/02 11:03:14;;;;;;;41.83;17.10;;;;;;;;;;5102323;27;41452;-71
2023/10/02 11:05:43;;;;;;;43.42;18.85;;;;;;;;;;5105002;27;41817;-67
2023/10/02 11:08:23;;;;;;;35.88;16.80;;;;;;;;;;5108533;28;40374;-68
2023/10/02 11:11:01;;;;;;;33.70;16.75;;;;;;;;;;5105610;28;41589;-69
2023/10/02 11:13:30;;;;;;;39.70;15.80;;;;;;;;;;5109528;28;42071;-67
2023/10/02 11:16:07;;;;;;;35.97;16.25;;;;;;;;;;5108423;27;41167;-69
2023/10/02 11:18:39;;;;;;;36.45;15.98;;;;;;;;;;5108775;27;42161;-67
2023/10/02 11:21:21;;;;;;;35.30;15.52;;;;;;;;;;5108286;28;42441;-68
2023/10/02 11:23:50;;;;;;;34.20;16.02;;;;;;;;;;5105640;28;40519;-67
2023/10/02 11:26:21;;;;;;;30.17;15.70;;;;;;;;;;5108940;28;41866;-69
2023/10/02 11:28:50;;;;;;;26.60;16.10;;;;;;;;;;5108834;27;39891;-67
2023/10/02 11:31:33;;;;;;;29.88;16.63;;;;;;;;;;5100421;28;41106;-68
2023/10/02 11:34:01;;;;;;;28.30;17.35;;;;;;;;;;5105630;28;40588;-68
2023/10/02 11:36:52;;;;;;;34.92;18.27;;;;;;;;;;5106955;28;41082;-67
2023/10/02 11:39:26;;;;;;;29.38;17.15;;;;;;;;;;5106609;28;42008;-67
2023/10/02 11:41:54;;;;;;;36.22;17.67;;;;;;;;;;5106274;28;43419;-68
2023/10/02 11:44:23;;;;;;;32.95;15.30;;;;;;;;;;5108652;27;41183;-67
2023/10/02 11:46:52;;;;;;;36.53;14.48;;;;;;;;;;5104232;28;41387;-68
2023/10/02 11:49:20;;;;;;;35.92;12.23;;;;;;;;;;5102179;28;39992;-67
2023/10/02 11:51:48;;;;;;;27.05;11.85;;;;;;;;;;5107905;28;41434;-67
2023/10/02 11:54:17;;;;;;;25.25;11.68;;;;;;;;;;5107917;28;42265;-68
2023/10/02 11:56:46;;;;;;;24.48;12.80;;;;;;;;;;5107429;28;40863;-67
2023/10/02 11:59:15;;;;;;;26.00;12.13;;;;;;;;;;5107371;28;41613;-68
2023/10/02 12:01:47;;;;;;;23.92;13.00;;;;;;;;;;5107695;28;42879;-67
2023/10/02 12:04:16;;;;;;;27.25;12.50;;;;;;;;;;5108080;28;40741;-68
2023/10/02 12:06:44;;;;;;;23.05;11.95;;;;;;;;;;5106227;27;42563;-67
2023/10/02 12:09:17;;;;;;;25.65;11.80;;;;;;;;;;5107946;27;42093;-67
2023/10/02 12:11:46;;;;;;;19.63;11.48;;;;;;;;;;5104569;28;40631;-67
2023/10/02 12:14:14;;;;;;;25.70;11.98;;;;;;;;;;5107575;28;40891;-67
2023/10/02 12:16:42;;;;;;;26.10;11.63;;;;;;;;;;5107690;28;41825;-67
2023/10/02 12:19:15;;;;;;;20.38;11.73;;;;;;;;;;5106338;28;42089;-68
2023/10/02 12:21:44;;;;;;;22.55;11.52;;;;;;;;;;5104581;28;42653;-68
2023/10/02 12:24:32;;;;;;;20.67;12.82;;;;;;;;;;5104459;28;40030;-67
2023/10/02 12:27:00;;;;;;;24.30;13.25;;;;;;;;;;5106350;28;41336;-68
2023/10/02 12:29:29;;;;;;;25.73;12.90;;;;;;;;;;5107216;27;42758;-67
2023/10/02 12:32:00;;;;;;;23.45;13.75;;;;;;;;;;5106558;27;41393;-68
2023/10/02 12:34:29;;;;;;;23.80;13.52;;;;;;;;;;5106378;27;41176;-67
2023/10/02 12:36:58;;;;;;;23.85;12.27;;;;;;;;;;5105372;28;39754;-68
2023/10/02 12:39:30;;;;;;;21.50;12.80;;;;;;;;;;5105586;28;41595;-68
2023/10/02 12:41:58;;;;;;;63.83;15.63;;;;;;;;;;5106510;28;41501;-67
2023/10/02 12:44:30;;;;;;;27.38;13.43;;;;;;;;;;5107596;28;40563;-68
2023/10/02 12:46:58;;;;;;;33.35;13.50;;;;;;;;;;5106422;27;42199;-67
2023/10/02 12:49:27;;;;;;;27.63;12.23;;;;;;;;;;5107738;28;42284;-68
2023/10/02 12:51:55;;;;;;;24.75;14.02;;;;;;;;;;5107859;28;41459;-67
2023/10/02 12:54:25;;;;;;;24.88;12.18;;;;;;;;;;5107228;28;42661;-66
2023/10/02 12:56:53;;;;;;;31.33;15.43;;;;;;;;;;5107343;28;40453;-66
2023/10/02 12:59:23;;;;;;;24.65;14.20;;;;;;;;;;5107232;27;41731;-66
2023/10/02 13:01:52;;;;;;;23.58;13.23;;;;;;;;;;5106588;28;42101;-67
2023/10/02 13:04:20;;;;;;;27.15;13.30;;;;;;;;;;5107934;27;40029;-67
2023/10/02 13:06:48;;;;;;;21.83;12.93;;;;;;;;;;5108210;27;41350;-67
2023/10/02 13:09:18;;;;;;;24.23;14.20;;;;;;;;;;5109950;27;41706;-67
2023/10/02 13:11:48;;;;;;;24.15;13.32;;;;;;;;;;5110444;27;41404;-67
2023/10/02 13:14:17;;;;;;;23.15;13.13;;;;;;;;;;5111352;28;42212;-67
2023/10/02 13:16:48;;;;;;;27.25;13.95;;;;;;;;;;5107761;28;39045;-68
2023/10/02 13:19:17;;;;;;;26.60;13.13;;;;;;;;;;5110738;27;42100;-68
2023/10/02 13:21:51;;;;;;;25.13;13.88;;;;;;;;;;5107263;28;42141;-68
2023/10/02 13:24:23;;;;;;;27.60;13.25;;;;;;;;;;5110194;27;41265;-68
2023/10/02 13:26:53;;;;;;;24.95;13.57;;;;;;;;;;5106809;28;42175;-68
2023/10/02 13:29:24;;;;;;;26.38;12.38;;;;;;;;;;5110356;28;41534;-69
2023/10/02 13:31:52;;;;;;;41.47;12.82;;;;;;;;;;5110226;28;39933;-68
2023/10/02 13:34:21;;;;;;;39.97;12.10;;;;;;;;;;5110522;27;42224;-68
2023/10/02 13:36:49;;;;;;;29.08;12.98;;;;;;;;;;5109281;27;42864;-68
2023/10/02 13:39:18;;;;;;;26.10;13.27;;;;;;;;;;5110286;27;42115;-69
2023/10/02 13:41:47;;;;;;;34.60;13.80;;;;;;;;;;5109513;28;42092;-69
2023/10/02 13:44:17;;;;;;;23.15;12.65;;;;;;;;;;5108993;28;40479;-69
2023/10/02 13:46:46;;;;;;;22.38;12.02;;;;;;;;;;5109949;27;41546;-69
2023/10/02 13:49:19;;;;;;;35.42;13.40;;;;;;;;;;5108877;27;42740;-69
2023/10/02 13:51:47;;;;;;;28.52;13.00;;;;;;;;;;5107479;28;39311;-70
2023/10/02 13:54:16;;;;;;;22.33;12.23;;;;;;;;;;5110116;27;41616;-70
2023/10/02 13:56:45;;;;;;;27.30;12.82;;;;;;;;;;5102749;27;42468;-69
2023/10/02 13:59:14;;;;;;;38.45;13.07;;;;;;;;;;5106928;27;41433;-70
2023/10/02 14:01:46;;;;;;;39.97;14.00;;;;;;;;;;5103661;28;43012;-68
2023/10/02 14:04:14;;;;;;;34.85;15.48;;;;;;;;;;5102182;28;40028;-68
2023/10/02 14:06:42;;;;;;;32.15;14.43;;;;;;;;;;5098827;28;41163;-68
2023/10/02 14:09:10;;;;;;;34.90;13.32;;;;;;;;;;5098867;27;42836;-68
2023/10/02 14:11:39;;;;;;;28.30;14.27;;;;;;;;;;5097524;28;40512;-68
2023/10/02 14:14:08;;;;;;;33.53;13.73;;;;;;;;;;5099883;28;41517;-68
2023/10/02 14:16:36;;;;;;;30.52;14.70;;;;;;;;;;5099852;28;41255;-68
2023/10/02 14:19:06;;;;;;;29.00;14.35;;;;;;;;;;5108651;27;40480;-68
2023/10/02 14:21:35;;;;;;;28.02;13.20;;;;;;;;;;5107290;28;42469;-69
2023/10/02 14:24:04;;;;;;;23.90;11.35;;;;;;;;;;5110004;27;42131;-69
2023/10/02 14:26:33;;;;;;;23.45;11.68;;;;;;;;;;5108674;28;41669;-69
2023/10/02 14:29:01;;;;;;;23.25;10.95;;;;;;;;;;5109312;27;42194;-69
2023/10/02 14:31:31;;;;;;;21.33;11.50;;;;;;;;;;5109579;27;41470;-68
2023/10/02 14:34:00;;;;;;;21.80;10.88;;;;;;;;;;5101278;28;40739;-69
2023/10/02 14:36:30;;;;;;;28.75;12.48;;;;;;;;;;5109088;27;42233;-69
2023/10/02 14:38:58;;;;;;;27.58;11.30;;;;;;;;;;5108415;27;40055;-69
2023/10/02 14:41:27;;;;;;;21.33;11.35;;;;;;;;;;5108145;28;41622;-70
2023/10/02 14:43:57;;;;;;;17.65;9.93;;;;;;;;;;5108922;28;41921;-69
2023/10/02 14:46:26;;;;;;;24.58;11.75;;;;;;;;;;5108624;28;41873;-69
2023/10/02 14:48:54;;;;;;;20.45;10.70;;;;;;;;;;5108759;28;42069;-69
2023/10/02 14:51:22;;;;;;;22.00;12.10;;;;;;;;;;5109661;28;40158;-70
2023/10/02 14:53:52;;;;;;;24.63;10.60;;;;;;;;;;5103354;28;42471;-69
2023/10/02 14:56:21;;;;;;;24.23;10.80;;;;;;;;;;5109315;28;43140;-69
2023/10/02 14:58:50;;;;;;;21.35;11.50;;;;;;;;;;5108086;27;40367;-70
2023/10/02 15:01:18;;;;;;;25.38;10.27;;;;;;;;;;5108788;27;42109;-68
2023/10/02 15:03:48;;;;;;;25.75;11.30;;;;;;;;;;5107751;28;42783;-68
2023/10/02 15:06:17;;;;;;;23.30;10.32;;;;;;;;;;5092659;27;41693;-69
2023/10/02 15:08:45;;;;;;;55.72;12.60;;;;;;;;;;5101322;28;42123;-69
2023/10/02 15:11:14;;;;;;;29.85;11.57;;;;;;;;;;5109139;28;40280;-68
2023/10/02 15:13:44;;;;;;;27.00;10.80;;;;;;;;;;5106119;28;41453;-68
2023/10/02 15:16:14;;;;;;;26.67;11.60;;;;;;;;;;5108009;27;41738;-69
2023/10/02 15:18:45;;;;;;;28.75;10.27;;;;;;;;;;5106589;28;38791;-69
2023/10/02 15:21:16;;;;;;;24.88;10.93;;;;;;;;;;5108675;28;41225;-69
2023/10/02 15:23:44;;;;;;;23.95;10.90;;;;;;;;;;5104727;28;42046;-69
2023/10/02 15:26:15;;;;;;;25.27;10.10;;;;;;;;;;5109325;27;40986;-68
2023/10/02 15:28:43;;;;;;;34.30;11.45;;;;;;;;;;5105592;27;43066;-68
2023/10/02 15:31:13;;;;;;;31.63;11.43;;;;;;;;;;5108487;28;39962;-68